Time;durP1;ratioP1;P1;durP2;ratioP2;P2;SDS_P1;SDS_P2;PMS_P1;PMS_P2;Temp;Humidity;BMP_temperature;BMP_pressure;BME280_temperature;BME280_humidity;BME280_pressure;Samples;Min_cycle;Max_cycle;Signal;HPM_P1;HPM_P2
2023/04/20 00:00:42;;;;;;;;;;;;;;;16.52;51.01;102716.94;2095937;28;19935;-54
2023/04/20 00:01:45;;;;;;;;;;;;;;;16.53;50.61;102715.00;2094697;28;19931;-54
2023/04/20 00:02:47;;;;;;;;;;;;;;;16.53;50.84;102717.72;2088959;28;19925;-54
2023/04/20 00:03:50;;;;;;;;;;;;;;;16.52;50.88;102707.97;2096683;28;19928;-54
2023/04/20 00:04:52;;;;;;;;;;;;;;;16.52;50.77;102718.88;2093928;28;20023;-54
2023/04/20 00:05:55;;;;;;;;;;;;;;;16.51;50.63;102707.16;2093820;28;19975;-53
2023/04/20 00:06:57;;;;;;;;;;;;;;;16.52;50.67;102705.25;2095348;28;20023;-55
2023/04/20 00:08:00;;;;;;;;;;;;;;;16.52;50.91;102707.97;2096138;28;19928;-52
2023/04/20 00:09:03;;;;;;;;;;;;;;;16.52;50.82;102700.59;2096217;28;20376;-55
2023/04/20 00:10:06;;;;;;;;;;;;;;;16.51;50.63;102701.72;2095820;28;19928;-54
2023/04/20 00:11:08;;;;;;;;;;;;;;;16.52;50.81;102705.25;2096586;28;19928;-53
2023/04/20 00:12:11;;;;;;;;;;;;;;;16.52;50.78;102699.78;2096581;28;20001;-53
2023/04/20 00:13:12;;;;;;;;;;;;;;;16.52;50.52;102699.78;2096867;28;19939;-54
2023/04/20 00:14:15;;;;;;;;;;;;;;;16.51;50.81;102698.19;2096445;28;20018;-54
2023/04/20 00:15:17;;;;;;;;;;;;;;;16.51;50.81;102698.19;2092377;28;20376;-54
2023/04/20 00:16:20;;;;;;;;;;;;;;;16.51;50.68;102696.25;2095739;28;19932;-52
2023/04/20 00:17:21;;;;;;;;;;;;;;;16.52;50.34;102697.06;2096901;28;19929;-53
2023/04/20 00:18:24;;;;;;;;;;;;;;;16.52;50.64;102702.50;2096645;28;19928;-55
2023/04/20 00:19:27;;;;;;;;;;;;;;;16.51;50.82;102690.03;2096339;28;19936;-53
2023/04/20 00:20:29;;;;;;;;;;;;;;;16.51;50.62;102695.47;2096667;28;19924;-54
2023/04/20 00:21:31;;;;;;;;;;;;;;;16.50;51.08;102694.66;2094593;28;20038;-54
2023/04/20 00:22:34;;;;;;;;;;;;;;;16.50;50.60;102685.69;2089385;28;19967;-54
2023/04/20 00:23:36;;;;;;;;;;;;;;;16.50;50.65;102683.75;2096463;28;20023;-52
2023/04/20 00:24:39;;;;;;;;;;;;;;;16.52;50.63;102686.16;2095623;28;19924;-54
2023/04/20 00:25:40;;;;;;;;;;;;;;;16.51;50.68;102684.56;2096373;28;19936;-54
2023/04/20 00:26:43;;;;;;;;;;;;;;;16.50;50.76;102683.75;2095838;28;19929;-55
2023/04/20 00:27:44;;;;;;;;;;;;;;;16.51;50.85;102681.84;2084188;28;19929;-55
2023/04/20 00:28:47;;;;;;;;;;;;;;;16.50;50.54;102674.78;2089395;28;19929;-52
2023/04/20 00:29:48;;;;;;;;;;;;;;;16.50;50.76;102674.78;2096306;28;19925;-53
2023/04/20 00:30:51;;;;;;;;;;;;;;;16.50;50.43;102672.06;2095323;28;19967;-53
2023/04/20 00:31:52;;;;;;;;;;;;;;;16.50;50.58;102677.50;2096175;28;19973;-52
2023/04/20 00:32:55;;;;;;;;;;;;;;;16.49;50.61;102675.91;2096612;28;19954;-55
2023/04/20 00:33:57;;;;;;;;;;;;;;;16.50;50.67;102672.06;2092706;28;20016;-54
2023/04/20 00:34:59;;;;;;;;;;;;;;;16.49;50.75;102673.97;2087047;28;20019;-54
2023/04/20 00:36:01;;;;;;;;;;;;;;;16.49;50.53;102673.19;2093759;28;19928;-52
2023/04/20 00:37:04;;;;;;;;;;;;;;;16.50;50.50;102672.06;2096847;28;19967;-54
2023/04/20 00:38:05;;;;;;;;;;;;;;;16.49;50.51;102670.47;2096054;28;20415;-54
2023/04/20 00:39:08;;;;;;;;;;;;;;;16.50;50.55;102669.31;2094704;28;19928;-53
2023/04/20 00:40:09;;;;;;;;;;;;;;;16.49;50.62;102665.00;2096275;28;19928;-51
2023/04/20 00:41:12;;;;;;;;;;;;;;;16.50;50.69;102666.59;2095758;28;19928;-53
2023/04/20 00:42:14;;;;;;;;;;;;;;;16.49;50.68;102659.56;2087817;28;19933;-54
2023/04/20 00:43:16;;;;;;;;;;;;;;;16.49;50.67;102659.56;2094399;28;19929;-53
2023/04/20 00:44:18;;;;;;;;;;;;;;;16.49;50.93;102659.56;2092439;28;19925;-54
2023/04/20 00:45:21;;;;;;;;;;;;;;;16.49;50.61;102665.00;2094798;28;19928;-53
2023/04/20 00:46:22;;;;;;;;;;;;;;;16.49;50.91;102667.75;2096859;28;20272;-54
2023/04/20 00:47:25;;;;;;;;;;;;;;;16.49;50.57;102656.84;2103856;28;19939;-52
2023/04/20 00:48:27;;;;;;;;;;;;;;;16.49;50.83;102656.84;2103623;28;20307;-53
2023/04/20 00:49:30;;;;;;;;;;;;;;;16.49;50.92;102654.09;2096628;28;19981;-52
2023/04/20 00:50:34;;;;;;;;;;;;;;;16.49;50.82;102659.56;2095908;28;19977;-54
2023/04/20 00:51:37;;;;;;;;;;;;;;;16.49;50.58;102659.56;2079770;28;19933;-53
2023/04/20 00:52:39;;;;;;;;;;;;;;;16.49;50.70;102648.66;2081189;28;19986;-54
2023/04/20 00:53:41;;;;;;;;;;;;;;;16.49;50.68;102651.38;2096803;28;19982;-53
2023/04/20 00:54:43;;;;;;;;;;;;;;;16.49;50.58;102651.38;2099049;28;19951;-54
2023/04/20 00:55:46;;;;;;;;;;;;;;;16.49;50.80;102640.47;2095669;28;19985;-51
2023/04/20 00:56:47;;;;;;;;;;;;;;;16.49;50.62;102648.66;2095754;28;19932;-54
2023/04/20 00:57:50;;;;;;;;;;;;;;;16.48;50.94;102647.03;2095346;28;20014;-53
2023/04/20 00:58:52;;;;;;;;;;;;;;;16.48;50.85;102644.31;2093596;28;19932;-54
2023/04/20 00:59:54;;;;;;;;;;;;;;;16.48;50.83;102653.31;2093926;28;19928;-54
2023/04/20 01:00:56;;;;;;;;;;;;;;;16.48;50.96;102647.03;2088534;28;19971;-52
2023/04/20 01:01:59;;;;;;;;;;;;;;;16.48;50.87;102641.59;2095429;28;20295;-55
2023/04/20 01:03:00;;;;;;;;;;;;;;;16.47;50.90;102637.28;2095905;28;20353;-54
2023/04/20 01:04:03;;;;;;;;;;;;;;;16.47;50.75;102631.81;2095544;28;19950;-53
2023/04/20 01:05:05;;;;;;;;;;;;;;;16.47;50.59;102632.63;2092691;28;19929;-54
2023/04/20 01:06:07;;;;;;;;;;;;;;;16.47;50.78;102629.91;2089649;28;19933;-53
2023/04/20 01:07:09;;;;;;;;;;;;;;;16.48;50.75;102636.13;2080778;28;19983;-53
2023/04/20 01:08:12;;;;;;;;;;;;;;;16.47;50.74;102635.34;2092855;28;20708;-53
2023/04/20 01:09:13;;;;;;;;;;;;;;;16.47;50.64;102629.09;2096132;28;19932;-54
2023/04/20 01:10:16;;;;;;;;;;;;;;;16.47;50.64;102632.63;2095686;28;19928;-53
2023/04/20 01:11:18;;;;;;;;;;;;;;;16.47;50.70;102631.81;2096518;28;19932;-53
2023/04/20 01:12:20;;;;;;;;;;;;;;;16.47;50.59;102626.38;2096314;28;19928;-53
2023/04/20 01:13:22;;;;;;;;;;;;;;;16.47;50.69;102626.38;2095653;28;19928;-52
2023/04/20 01:14:25;;;;;;;;;;;;;;;16.47;50.75;102623.66;2103235;28;20015;-54
2023/04/20 01:15:27;;;;;;;;;;;;;;;16.46;50.95;102622.84;2104202;28;20739;-52
2023/04/20 01:16:30;;;;;;;;;;;;;;;16.47;50.86;102627.19;2095912;28;19999;-55
2023/04/20 01:17:33;;;;;;;;;;;;;;;16.47;50.69;102624.44;2095216;28;20037;-54
2023/04/20 01:18:49;;;;;;;;;;;;;;;16.47;50.73;102615.47;2087129;28;19929;-52
2023/04/20 01:19:51;;;;;;;;;;;;;;;16.46;50.67;102611.16;2088778;28;19928;-54
2023/04/20 01:20:55;;;;;;;;;;;;;;;16.46;50.68;102609.22;2095206;28;19963;-54
2023/04/20 01:21:57;;;;;;;;;;;;;;;16.46;50.93;102611.94;2096059;28;19944;-53
2023/04/20 01:22:59;;;;;;;;;;;;;;;16.46;50.60;102606.47;2095321;28;19973;-55
2023/04/20 01:24:01;;;;;;;;;;;;;;;16.46;50.62;102608.44;2092131;28;19932;-52
2023/04/20 01:25:06;;;;;;;;;;;;;;;16.46;50.54;102605.72;2095223;28;20032;-52
2023/04/20 01:26:09;;;;;;;;;;;;;;;16.46;50.66;102602.97;2095006;28;19925;-53
2023/04/20 01:27:12;;;;;;;;;;;;;;;16.46;50.88;102600.25;2088315;28;20411;-53
2023/04/20 01:28:14;;;;;;;;;;;;;;;16.46;50.93;102600.25;2094979;28;20015;-54
2023/04/20 01:29:17;;;;;;;;;;;;;;;16.45;50.90;102594.00;2095240;28;19936;-52
2023/04/20 01:30:19;;;;;;;;;;;;;;;16.45;50.80;102596.72;2096181;28;19928;-52
2023/04/20 01:31:21;;;;;;;;;;;;;;;16.44;50.71;102598.63;2095306;28;19943;-52
2023/04/20 01:32:24;;;;;;;;;;;;;;;16.46;50.93;102594.81;2095585;28;19939;-54
2023/04/20 01:33:27;;;;;;;;;;;;;;;16.46;50.60;102594.81;2096023;28;20017;-52
2023/04/20 01:34:29;;;;;;;;;;;;;;;16.45;50.86;102599.44;2095935;28;19933;-53
2023/04/20 01:35:31;;;;;;;;;;;;;;;16.44;50.88;102595.91;2094716;28;19974;-54
2023/04/20 01:36:35;;;;;;;;;;;;;;;16.44;50.83;102581.47;2087647;28;19929;-53
2023/04/20 01:37:38;;;;;;;;;;;;;;;16.44;50.95;102593.19;2093556;28;19928;-54
2023/04/20 01:38:40;;;;;;;;;;;;;;;16.44;50.72;102587.72;2092168;28;19929;-53
2023/04/20 01:39:44;;;;;;;;;;;;;;;16.44;50.68;102590.47;2096146;28;19928;-54
2023/04/20 01:40:46;;;;;;;;;;;;;;;16.44;50.59;102584.19;2095954;28;20097;-52
2023/04/20 01:41:48;;;;;;;;;;;;;;;16.43;50.82;102583.41;2096157;28;20666;-53
2023/04/20 01:42:51;;;;;;;;;;;;;;;16.44;50.96;102582.28;2095797;28;19929;-54
2023/04/20 01:43:53;;;;;;;;;;;;;;;16.44;50.93;102581.47;2095475;28;19974;-54
2023/04/20 01:44:55;;;;;;;;;;;;;;;16.44;50.63;102581.47;2094112;28;20560;-52
2023/04/20 01:45:58;;;;;;;;;;;;;;;16.44;50.72;102573.28;2095657;28;19928;-54
2023/04/20 01:46:59;;;;;;;;;;;;;;;16.44;50.82;102576.81;2090900;28;19933;-54
2023/04/20 01:48:02;;;;;;;;;;;;;;;16.44;50.92;102568.66;2095459;28;19985;-54
2023/04/20 01:49:04;;;;;;;;;;;;;;;16.43;50.67;102567.03;2095018;28;19971;-52
2023/04/20 01:50:07;;;;;;;;;;;;;;;16.43;50.71;102567.03;2095250;28;19951;-54
2023/04/20 01:51:09;;;;;;;;;;;;;;;16.43;50.90;102567.03;2095697;28;20043;-54
2023/04/20 01:52:11;;;;;;;;;;;;;;;16.42;50.72;102562.72;2095251;28;20608;-53
2023/04/20 01:53:13;;;;;;;;;;;;;;;16.43;50.71;102561.59;2095861;28;19929;-52
2023/04/20 01:54:15;;;;;;;;;;;;;;;16.43;50.75;102558.84;2095581;28;19937;-54
2023/04/20 01:55:17;;;;;;;;;;;;;;;16.42;50.72;102560.00;2095315;28;20073;-54
2023/04/20 01:56:21;;;;;;;;;;;;;;;16.43;50.80;102558.84;2088727;28;19929;-55
2023/04/20 01:57:23;;;;;;;;;;;;;;;16.43;50.82;102560.78;2100278;28;19928;-54
2023/04/20 01:58:26;;;;;;;;;;;;;;;16.43;50.74;102553.41;2084161;28;19929;-54
2023/04/20 01:59:28;;;;;;;;;;;;;;;16.43;50.91;102552.59;2084845;28;20419;-54
2023/04/20 02:00:31;;;;;;;;;;;;;;;16.42;51.00;102551.81;2087308;28;19929;-53
2023/04/20 02:01:32;;;;;;;;;;;;;;;16.42;50.88;102551.81;2088922;28;19925;-54
2023/04/20 02:02:35;;;;;;;;;;;;;;;16.42;50.97;102551.81;2091958;28;20424;-54
2023/04/20 02:03:37;;;;;;;;;;;;;;;16.42;50.92;102551.81;2086767;28;19978;-55
2023/04/20 02:04:40;;;;;;;;;;;;;;;16.42;50.78;102543.66;2086002;28;20332;-54
2023/04/20 02:05:42;;;;;;;;;;;;;;;16.42;50.92;102545.56;2092312;28;19939;-51
2023/04/20 02:06:44;;;;;;;;;;;;;;;16.42;51.01;102540.91;2095898;28;20023;-54
2023/04/20 02:07:46;;;;;;;;;;;;;;;16.42;50.61;102540.91;2095785;28;19924;-54
2023/04/20 02:08:48;;;;;;;;;;;;;;;16.42;50.98;102530.00;2093409;28;20384;-54
2023/04/20 02:09:50;;;;;;;;;;;;;;;16.42;50.90;102540.91;2093208;28;20480;-54
2023/04/20 02:10:52;;;;;;;;;;;;;;;16.41;50.89;102530.34;2090159;28;19928;-54
2023/04/20 02:11:55;;;;;;;;;;;;;;;16.42;50.79;102534.66;2088457;28;19928;-52
2023/04/20 02:12:57;;;;;;;;;;;;;;;16.42;50.96;102540.91;2085982;28;19929;-53
2023/04/20 02:13:59;;;;;;;;;;;;;;;16.40;50.64;102526.81;2092344;28;19973;-55
2023/04/20 02:15:03;;;;;;;;;;;;;;;16.42;50.69;102532.75;2105484;28;19928;-52
2023/04/20 02:16:05;;;;;;;;;;;;;;;16.41;50.80;102528.41;2102458;28;19981;-52
2023/04/20 02:17:08;;;;;;;;;;;;;;;16.41;50.68;102528.41;2097162;28;19929;-54
2023/04/20 02:18:10;;;;;;;;;;;;;;;16.41;50.76;102522.19;2097810;28;19986;-55
2023/04/20 02:19:12;;;;;;;;;;;;;;;16.41;50.74;102528.41;2097333;28;20391;-55
2023/04/20 02:20:14;;;;;;;;;;;;;;;16.41;50.81;102528.41;2097718;28;19936;-54
2023/04/20 02:21:18;;;;;;;;;;;;;;;16.41;50.74;102522.19;2097747;28;19932;-53
2023/04/20 02:22:20;;;;;;;;;;;;;;;16.40;50.86;102517.84;2096518;28;19954;-53
2023/04/20 02:23:22;;;;;;;;;;;;;;;16.40;50.72;102518.66;2096634;28;19929;-54
2023/04/20 02:24:24;;;;;;;;;;;;;;;16.40;50.92;102517.84;2091161;28;20410;-53
2023/04/20 02:25:29;;;;;;;;;;;;;;;16.41;51.04;102517.50;2091753;28;19933;-53
2023/04/20 02:26:30;;;;;;;;;;;;;;;16.40;50.93;102517.84;2096644;28;19932;-54
2023/04/20 02:27:34;;;;;;;;;;;;;;;16.41;50.78;102525.69;2097174;28;19931;-54
2023/04/20 02:28:38;;;;;;;;;;;;;;;16.39;51.03;102519.75;2097051;28;20307;-55
2023/04/20 02:29:41;;;;;;;;;;;;;;;16.40;50.62;102524.09;2095990;28;20069;-54
2023/04/20 02:30:42;;;;;;;;;;;;;;;16.40;50.95;102520.56;2092286;28;20403;-54
2023/04/20 02:31:46;;;;;;;;;;;;;;;16.40;50.88;102528.75;2090560;28;19936;-54
2023/04/20 02:32:49;;;;;;;;;;;;;;;16.39;50.94;102525.22;2090752;28;19975;-53
2023/04/20 02:33:52;;;;;;;;;;;;;;;16.39;50.69;102522.50;2092525;28;20488;-54
2023/04/20 02:34:53;;;;;;;;;;;;;;;16.39;50.91;102513.53;2097529;28;20031;-54
2023/04/20 02:35:56;;;;;;;;;;;;;;;16.39;50.80;102514.31;2097626;28;20387;-54
2023/04/20 02:36:58;;;;;;;;;;;;;;;16.40;50.74;102513.19;2091686;28;19978;-54
2023/04/20 02:38:00;;;;;;;;;;;;;;;16.39;50.90;102508.09;2093304;28;20391;-52
2023/04/20 02:39:02;;;;;;;;;;;;;;;16.39;50.67;102510.81;2096250;28;20309;-53
2023/04/20 02:40:05;;;;;;;;;;;;;;;16.40;50.82;102509.66;2094157;28;19982;-51
2023/04/20 02:41:07;;;;;;;;;;;;;;;16.38;50.85;102501.81;2097512;28;20024;-54
2023/04/20 02:42:10;;;;;;;;;;;;;;;16.38;50.83;102506.47;2096438;28;20051;-52
2023/04/20 02:43:12;;;;;;;;;;;;;;;16.38;50.75;102507.28;2084808;28;19925;-54
2023/04/20 02:44:15;;;;;;;;;;;;;;;16.39;50.71;102508.09;2088995;28;20043;-54
2023/04/20 02:45:17;;;;;;;;;;;;;;;16.38;50.75;102501.81;2097009;28;19925;-54
2023/04/20 02:46:21;;;;;;;;;;;;;;;16.37;50.89;102505.69;2092414;28;20392;-54
2023/04/20 02:47:23;;;;;;;;;;;;;;;16.38;50.78;102501.81;2104980;28;20364;-54
2023/04/20 02:48:27;;;;;;;;;;;;;;;16.38;50.75;102506.47;2093054;28;19932;-54
2023/04/20 02:49:29;;;;;;;;;;;;;;;16.37;50.97;102497.53;2082096;28;19928;-51
2023/04/20 02:50:32;;;;;;;;;;;;;;;16.38;51.01;102501.81;2080785;28;19948;-53
2023/04/20 02:51:44;;;;;;;;;;;;;;;16.37;50.99;102500.25;2096971;28;19993;-54
2023/04/20 02:52:47;;;;;;;;;;;;;;;16.38;50.76;102498.28;2093579;28;20403;-54
2023/04/20 02:53:48;;;;;;;;;;;;;;;16.37;50.84;102500.25;2096643;28;19966;-52
2023/04/20 02:54:59;;;;;;;;;;;;;;;16.37;50.72;102494.78;2089462;28;19952;-53
2023/04/20 02:56:02;;;;;;;;;;;;;;;16.37;50.75;102494.78;2085976;28;20020;-53
2023/04/20 02:57:14;;;;;;;;;;;;;;;16.37;50.77;102491.25;2089719;28;20455;-53
2023/04/20 02:58:16;;;;;;;;;;;;;;;16.37;51.15;102489.34;2097373;28;20442;-53
2023/04/20 02:59:37;;;;;;;;;;;;;;;16.37;50.90;102483.09;2102254;28;20392;-53
2023/04/20 03:00:48;;;;;;;;;;;;;;;16.35;50.91;102483.41;2096375;28;19929;-54
2023/04/20 03:01:51;;;;;;;;;;;;;;;16.37;50.93;102483.09;2082924;28;19929;-54
2023/04/20 03:02:55;;;;;;;;;;;;;;;16.36;50.89;102476.81;2086921;28;19929;-54
2023/04/20 03:03:59;;;;;;;;;;;;;;;16.37;50.73;102478.44;2095872;28;19982;-54
2023/04/20 03:05:02;;;;;;;;;;;;;;;16.36;51.06;102482.28;2088849;28;19929;-53
2023/04/20 03:06:13;;;;;;;;;;;;;;;16.36;51.19;102478.78;2088722;28;19951;-55
2023/04/20 03:07:20;;;;;;;;;;;;;;;16.37;50.79;102485.81;2085935;28;19928;-52
2023/04/20 03:08:23;;;;;;;;;;;;;;;16.36;50.75;102482.28;2096331;28;20059;-55
2023/04/20 03:09:25;;;;;;;;;;;;;;;16.36;50.79;102470.59;2095992;28;19929;-54
2023/04/20 03:10:33;;;;;;;;;;;;;;;16.36;50.95;102476.81;2083484;28;20409;-54
2023/04/20 03:11:44;;;;;;;;;;;;;;;16.35;50.80;102467.06;2092349;28;19925;-50
2023/04/20 03:12:54;;;;;;;;;;;;;;;16.35;50.64;102469.78;2081508;28;20008;-54
2023/04/20 03:13:56;;;;;;;;;;;;;;;16.35;51.03;102469.78;2094255;28;19938;-54
2023/04/20 03:14:59;;;;;;;;;;;;;;;16.35;50.77;102458.88;2096599;28;20426;-54
2023/04/20 03:16:29;;;;;;;;;;;;;;;16.36;51.05;102448.78;2086733;28;20110;-54
2023/04/20 03:17:31;;;;;;;;;;;;;;;16.35;50.87;102453.44;2091686;28;19928;-53
2023/04/20 03:18:34;;;;;;;;;;;;;;;16.35;50.95;102452.63;2090270;28;20369;-55
2023/04/20 03:19:35;;;;;;;;;;;;;;;16.35;50.69;102448.00;2088523;28;19933;-53
2023/04/20 03:20:40;;;;;;;;;;;;;;;16.34;50.95;102449.13;2094869;28;20437;-53
2023/04/20 03:21:42;;;;;;;;;;;;;;;16.35;50.81;102448.00;2093530;28;19954;-53
2023/04/20 03:22:44;;;;;;;;;;;;;;;16.35;50.98;102441.72;2088166;28;19933;-53
2023/04/20 03:23:46;;;;;;;;;;;;;;;16.34;51.02;102451.84;2092743;28;19932;-53
2023/04/20 03:24:49;;;;;;;;;;;;;;;16.34;50.96;102445.59;2088618;28;20388;-54
2023/04/20 03:26:08;;;;;;;;;;;;;;;16.34;50.75;102449.13;2080076;28;19940;-54
2023/04/20 03:27:28;;;;;;;;;;;;;;;16.34;51.13;102448.31;2084677;28;20622;-54
2023/04/20 03:28:44;;;;;;;;;;;;;;;16.34;50.99;102451.84;2085529;28;19999;-52
2023/04/20 03:29:51;;;;;;;;;;;;;;;16.34;50.70;102451.06;2087776;28;19998;-52
2023/04/20 03:30:54;;;;;;;;;;;;;;;16.34;50.75;102451.84;2087831;28;19931;-54
2023/04/20 03:31:55;;;;;;;;;;;;;;;16.34;50.89;102446.41;2085364;28;19932;-53
2023/04/20 03:32:58;;;;;;;;;;;;;;;16.33;50.77;102455.69;2088575;28;19924;-54
2023/04/20 03:34:00;;;;;;;;;;;;;;;16.33;51.03;102444.78;2080329;28;19933;-52
2023/04/20 03:35:03;;;;;;;;;;;;;;;16.34;50.98;102451.84;2076651;28;19925;-54
2023/04/20 03:36:05;;;;;;;;;;;;;;;16.33;50.81;102455.69;2084284;28;20396;-52
2023/04/20 03:37:07;;;;;;;;;;;;;;;16.33;50.92;102444.03;2082522;28;20011;-54
2023/04/20 03:38:09;;;;;;;;;;;;;;;16.33;50.75;102452.97;2088285;28;19936;-53
2023/04/20 03:39:11;;;;;;;;;;;;;;;16.33;50.75;102450.25;2083359;28;19983;-53
2023/04/20 03:40:13;;;;;;;;;;;;;;;16.33;50.80;102452.19;2083303;28;19991;-54
2023/04/20 03:41:16;;;;;;;;;;;;;;;16.34;50.19;102434.69;2086211;28;19929;-54
2023/04/20 03:42:18;;;;;;;;;;;;;;;16.32;50.92;102443.22;2081534;28;19976;-55
2023/04/20 03:43:23;;;;;;;;;;;;;;;16.33;50.89;102438.56;2085640;28;20464;-54
2023/04/20 03:44:24;;;;;;;;;;;;;;;16.32;50.81;102440.50;2087349;28;19932;-54
2023/04/20 03:45:27;;;;;;;;;;;;;;;16.32;51.03;102434.22;2087465;28;20413;-54
2023/04/20 03:46:29;;;;;;;;;;;;;;;16.32;51.01;102432.31;2086690;28;19928;-54
2023/04/20 03:47:32;;;;;;;;;;;;;;;16.32;50.92;102432.31;2084497;28;20043;-53
2023/04/20 03:48:33;;;;;;;;;;;;;;;16.32;50.83;102439.69;2080761;28;20285;-53
2023/04/20 03:49:36;;;;;;;;;;;;;;;16.32;50.93;102439.69;2086344;28;19925;-54
2023/04/20 03:50:37;;;;;;;;;;;;;;;16.32;50.80;102440.50;2084022;28;19925;-53
2023/04/20 03:51:40;;;;;;;;;;;;;;;16.32;50.85;102442.41;2087666;28;19936;-54
2023/04/20 03:52:41;;;;;;;;;;;;;;;16.31;50.78;102433.47;2087439;28;19924;-53
2023/04/20 03:53:45;;;;;;;;;;;;;;;16.32;50.75;102431.50;2083226;28;19936;-53
2023/04/20 03:54:47;;;;;;;;;;;;;;;16.31;50.82;102433.47;2084221;28;19936;-54
2023/04/20 03:55:51;;;;;;;;;;;;;;;16.31;50.92;102430.75;2079694;28;20765;-54
2023/04/20 03:56:55;;;;;;;;;;;;;;;16.30;50.81;102437.31;2079013;28;19929;-53
2023/04/20 03:57:58;;;;;;;;;;;;;;;16.31;50.78;102436.19;2088060;28;19928;-55
2023/04/20 03:59:03;;;;;;;;;;;;;;;16.30;51.02;102434.56;2086077;28;19972;-53
2023/04/20 04:00:06;;;;;;;;;;;;;;;16.30;50.74;102434.56;2079223;28;19929;-55
2023/04/20 04:01:19;;;;;;;;;;;;;;;16.31;51.08;102429.94;2083076;28;20466;-52
2023/04/20 04:02:22;;;;;;;;;;;;;;;16.30;50.92;102431.84;2086367;28;19924;-54
2023/04/20 04:03:26;;;;;;;;;;;;;;;16.31;50.74;102424.47;2079167;28;20382;-55
2023/04/20 04:04:29;;;;;;;;;;;;;;;16.30;50.91;102429.13;2081854;28;20032;-52
2023/04/20 04:05:32;;;;;;;;;;;;;;;16.30;50.75;102423.66;2087230;28;19936;-55
2023/04/20 04:06:35;;;;;;;;;;;;;;;16.30;50.93;102429.13;2078259;28;20020;-54
2023/04/20 04:07:37;;;;;;;;;;;;;;;16.30;51.07;102426.41;2086471;28;20435;-54
2023/04/20 04:08:39;;;;;;;;;;;;;;;16.31;50.92;102435.38;2093110;28;20382;-54
2023/04/20 04:09:41;;;;;;;;;;;;;;;16.30;51.02;102434.56;2086872;28;19933;-52
2023/04/20 04:10:44;;;;;;;;;;;;;;;16.29;50.86;102435.72;2086541;28;19935;-58
2023/04/20 04:11:46;;;;;;;;;;;;;;;16.30;50.83;102436.50;2083666;28;19936;-57
2023/04/20 04:12:49;;;;;;;;;;;;;;;16.30;50.81;102436.50;2081259;28;19924;-55
2023/04/20 04:13:51;;;;;;;;;;;;;;;16.29;50.95;102432.19;2087853;28;20410;-52
2023/04/20 04:14:54;;;;;;;;;;;;;;;16.29;50.93;102433.00;2084002;28;19968;-52
2023/04/20 04:15:59;;;;;;;;;;;;;;;16.29;50.86;102433.00;2080018;28;19925;-53
2023/04/20 04:17:01;;;;;;;;;;;;;;;16.29;50.74;102429.47;2076842;28;19936;-54
2023/04/20 04:18:06;;;;;;;;;;;;;;;16.28;50.68;102436.84;2074950;28;19926;-53
2023/04/20 04:19:09;;;;;;;;;;;;;;;16.29;50.73;102432.19;2075161;28;20447;-52
2023/04/20 04:20:13;;;;;;;;;;;;;;;16.28;50.71;102433.34;2079324;28;19929;-51
2023/04/20 04:21:16;;;;;;;;;;;;;;;16.29;50.52;102438.44;2087457;28;19925;-55
2023/04/20 04:22:24;;;;;;;;;;;;;;;16.28;50.67;102430.63;2083209;28;20420;-53
2023/04/20 04:23:50;;;;;;;;;;;;;;;16.27;50.75;102429.81;2088639;28;19974;-50
2023/04/20 04:25:11;;;;;;;;;;;;;;;16.28;50.79;102436.84;2088585;28;19936;-54
2023/04/20 04:26:14;;;;;;;;;;;;;;;16.28;50.89;102436.06;2087461;28;20673;-53
2023/04/20 04:27:17;;;;;;;;;;;;;;;16.28;50.69;102425.94;2083449;28;19964;-53
2023/04/20 04:28:30;;;;;;;;;;;;;;;16.28;50.76;102431.38;2080922;28;20491;-52
2023/04/20 04:29:43;;;;;;;;;;;;;;;16.27;50.86;102424.34;2077478;28;19929;-51
2023/04/20 04:30:53;;;;;;;;;;;;;;;16.27;50.87;102421.63;2082455;28;19929;-52
2023/04/20 04:31:54;;;;;;;;;;;;;;;16.28;50.68;102422.44;2087450;28;19928;-54
2023/04/20 04:32:58;;;;;;;;;;;;;;;16.27;50.78;102424.34;2076983;28;20408;-55
2023/04/20 04:34:01;;;;;;;;;;;;;;;16.27;50.76;102423.56;2077656;28;20021;-52
2023/04/20 04:35:10;;;;;;;;;;;;;;;16.27;50.89;102424.34;2074107;28;19933;-52
2023/04/20 04:36:14;;;;;;;;;;;;;;;16.26;50.98;102428.22;2088107;28;19971;-54
2023/04/20 04:37:16;;;;;;;;;;;;;;;16.26;50.79;102420.06;2087174;28;19968;-53
2023/04/20 04:38:22;;;;;;;;;;;;;;;16.27;50.68;102421.63;2079013;28;19936;-53
2023/04/20 04:39:25;;;;;;;;;;;;;;;16.26;50.68;102417.31;2080543;28;20498;-54
2023/04/20 04:40:44;;;;;;;;;;;;;;;16.27;50.89;102412.66;2076905;28;20408;-53
2023/04/20 04:41:47;;;;;;;;;;;;;;;16.26;50.70;102411.88;2089121;28;20430;-54
2023/04/20 04:43:01;;;;;;;;;;;;;;;16.26;50.66;102405.63;2086941;28;19924;-53
2023/04/20 04:44:04;;;;;;;;;;;;;;;16.26;50.58;102406.44;2079031;28;19979;-55
2023/04/20 04:45:09;;;;;;;;;;;;;;;16.25;50.74;102410.28;2086161;28;19929;-52
2023/04/20 04:46:13;;;;;;;;;;;;;;;16.25;50.61;102396.63;2086261;28;19985;-53
2023/04/20 04:47:16;;;;;;;;;;;;;;;16.26;50.83;102403.69;2083109;28;20285;-54
2023/04/20 04:48:19;;;;;;;;;;;;;;;16.25;50.66;102393.91;2080055;28;20362;-53
2023/04/20 04:49:23;;;;;;;;;;;;;;;16.26;50.83;102417.31;2087526;28;20471;-53
2023/04/20 04:50:24;;;;;;;;;;;;;;;16.25;50.90;102409.50;2078714;28;20004;-54
2023/04/20 04:51:27;;;;;;;;;;;;;;;16.25;50.66;102404.81;2079285;28;20412;-54
2023/04/20 04:52:29;;;;;;;;;;;;;;;16.24;50.69;102411.41;2086254;28;19933;-54
2023/04/20 04:53:32;;;;;;;;;;;;;;;16.25;50.91;102407.53;2081998;28;19979;-54
2023/04/20 04:54:34;;;;;;;;;;;;;;;16.25;50.86;102406.78;2086632;28;20422;-54
2023/04/20 04:55:36;;;;;;;;;;;;;;;16.25;50.83;102401.31;2086525;28;20380;-54
2023/04/20 04:56:38;;;;;;;;;;;;;;;16.25;50.66;102410.28;2086762;28;19936;-51
2023/04/20 04:57:40;;;;;;;;;;;;;;;16.24;50.67;102408.69;2087524;28;19936;-52
2023/04/20 04:58:42;;;;;;;;;;;;;;;16.25;50.63;102407.53;2088036;28;19936;-51
2023/04/20 04:59:45;;;;;;;;;;;;;;;16.24;50.62;102411.41;2087955;28;19935;-51
2023/04/20 05:00:47;;;;;;;;;;;;;;;16.24;50.72;102414.13;2095534;28;19928;-53
2023/04/20 05:01:49;;;;;;;;;;;;;;;16.24;50.88;102414.13;2089603;28;20041;-50
2023/04/20 05:02:51;;;;;;;;;;;;;;;16.24;50.67;102425.03;2087976;28;19932;-51
2023/04/20 05:03:54;;;;;;;;;;;;;;;16.24;50.72;102411.41;2088321;28;19928;-54
2023/04/20 05:04:56;;;;;;;;;;;;;;;16.24;50.80;102418.78;2087695;28;19935;-52
2023/04/20 05:05:59;;;;;;;;;;;;;;;16.24;50.66;102421.50;2087932;28;20141;-53
2023/04/20 05:07:01;;;;;;;;;;;;;;;16.24;50.80;102410.59;2087955;28;19979;-54
2023/04/20 05:08:03;;;;;;;;;;;;;;;16.23;50.92;102409.84;2082209;28;20609;-52
2023/04/20 05:09:05;;;;;;;;;;;;;;;16.24;50.83;102418.78;2086394;28;19932;-54
2023/04/20 05:10:08;;;;;;;;;;;;;;;16.23;50.69;102407.09;2091516;28;19977;-54
2023/04/20 05:11:09;;;;;;;;;;;;;;;16.23;50.84;102407.09;2090834;28;20059;-55
2023/04/20 05:12:12;;;;;;;;;;;;;;;16.23;50.68;102419.94;2086419;28;19954;-54
2023/04/20 05:13:14;;;;;;;;;;;;;;;16.23;50.83;102409.84;2082189;28;19955;-53
2023/04/20 05:14:16;;;;;;;;;;;;;;;16.23;50.75;102418.00;2084710;28;19936;-54
2023/04/20 05:15:18;;;;;;;;;;;;;;;16.23;50.69;102412.56;2087638;28;20005;-52
2023/04/20 05:16:20;;;;;;;;;;;;;;;16.23;50.70;102401.66;2085674;28;19928;-54
2023/04/20 05:17:22;;;;;;;;;;;;;;;16.22;50.82;102405.50;2080626;28;19925;-54
2023/04/20 05:18:25;;;;;;;;;;;;;;;16.23;50.80;102411.75;2080293;28;20047;-54
2023/04/20 05:19:26;;;;;;;;;;;;;;;16.22;50.89;102400.06;2086911;28;19932;-52
2023/04/20 05:20:29;;;;;;;;;;;;;;;16.23;50.60;102407.09;2087633;28;20031;-51
2023/04/20 05:21:31;;;;;;;;;;;;;;;16.23;50.87;102412.56;2087376;28;20381;-54
2023/04/20 05:22:34;;;;;;;;;;;;;;;16.23;50.68;102409.84;2091356;28;19935;-54
2023/04/20 05:23:35;;;;;;;;;;;;;;;16.23;50.60;102407.09;2087928;28;19933;-54
2023/04/20 05:24:38;;;;;;;;;;;;;;;16.23;50.87;102395.41;2094798;28;20380;-55
2023/04/20 05:25:40;;;;;;;;;;;;;;;16.23;50.84;102401.66;2096023;28;20368;-55